Time;durP1;ratioP1;P1;durP2;ratioP2;P2;SDS_P1;SDS_P2;PMS_P1;PMS_P2;Temp;Humidity;BMP_temperature;BMP_pressure;BME280_temperature;BME280_humidity;BME280_pressure;Samples;Min_cycle;Max_cycle;Signal;HPM_P1;HPM_P2
2021/11/08 00:04:38;;;;;;;48.92;32.35;;;;;;;;;;10283174;28;20119;-64
2021/11/08 00:09:37;;;;;;;49.33;33.72;;;;;;;;;;10287501;28;20298;-65
2021/11/08 00:14:35;;;;;;;57.95;36.88;;;;;;;;;;10287705;28;20127;-65
2021/11/08 00:25:01;;;;;;;69.20;38.25;;;;;;;;;;10263017;28;20084;-64
2021/11/08 00:30:00;;;;;;;66.25;38.45;;;;;;;;;;10276029;28;20084;-65
2021/11/08 00:34:58;;;;;;;83.22;39.42;;;;;;;;;;10276461;28;20064;-65
2021/11/08 00:39:56;;;;;;;67.35;35.50;;;;;;;;;;10289652;28;20062;-65
2021/11/08 00:44:57;;;;;;;79.30;37.80;;;;;;;;;;10275364;28;20068;-66
2021/11/08 00:49:56;;;;;;;77.68;40.28;;;;;;;;;;10285063;28;20056;-64
2021/11/08 00:54:55;;;;;;;69.47;38.65;;;;;;;;;;10297611;28;20107;-64
2021/11/08 00:59:54;;;;;;;76.57;36.30;;;;;;;;;;10293229;28;20076;-63
2021/11/08 01:04:54;;;;;;;78.55;37.50;;;;;;;;;;10280669;28;20521;-64
2021/11/08 01:09:53;;;;;;;67.38;37.17;;;;;;;;;;10286461;28;20077;-64
2021/11/08 01:14:51;;;;;;;138.18;41.10;;;;;;;;;;10285959;28;20068;-64
2021/11/08 01:19:51;;;;;;;116.25;39.75;;;;;;;;;;10274472;28;20425;-63
2021/11/08 01:24:54;;;;;;;85.85;40.20;;;;;;;;;;10284749;28;20081;-66
2021/11/08 01:29:52;;;;;;;68.80;35.90;;;;;;;;;;10285476;28;20037;-62
2021/11/08 01:34:50;;;;;;;55.45;31.27;;;;;;;;;;10285211;28;20548;-65
2021/11/08 01:39:49;;;;;;;65.05;31.77;;;;;;;;;;10287948;28;20084;-64
2021/11/08 01:44:48;;;;;;;54.60;32.72;;;;;;;;;;10292487;28;20481;-64
2021/11/08 01:49:47;;;;;;;62.28;33.70;;;;;;;;;;10294210;28;20041;-64
2021/11/08 01:54:45;;;;;;;58.22;31.42;;;;;;;;;;10302632;28;20041;-65
2021/11/08 01:59:44;;;;;;;59.10;31.75;;;;;;;;;;10300344;28;20079;-64
2021/11/08 02:04:44;;;;;;;58.92;32.22;;;;;;;;;;10287744;28;20083;-64
2021/11/08 02:09:42;;;;;;;52.47;28.30;;;;;;;;;;10292355;28;20079;-65
2021/11/08 02:14:41;;;;;;;46.65;28.52;;;;;;;;;;10292015;28;20083;-65
2021/11/08 02:19:40;;;;;;;52.88;30.70;;;;;;;;;;10292033;28;20068;-65
2021/11/08 02:24:42;;;;;;;57.47;27.90;;;;;;;;;;10289738;28;20068;-65
2021/11/08 02:29:42;;;;;;;58.45;28.35;;;;;;;;;;10290956;28;20080;-65
2021/11/08 02:34:41;;;;;;;52.88;26.13;;;;;;;;;;10289797;28;20132;-65
2021/11/08 02:39:44;;;;;;;48.38;26.73;;;;;;;;;;10286440;28;20068;-65
2021/11/08 02:44:42;;;;;;;37.58;24.88;;;;;;;;;;10288197;28;20476;-64
2021/11/08 02:49:44;;;;;;;59.75;26.88;;;;;;;;;;10289353;28;20065;-64
2021/11/08 02:54:46;;;;;;;54.50;28.95;;;;;;;;;;10287025;28;20053;-65
2021/11/08 02:59:46;;;;;;;40.45;27.67;;;;;;;;;;10296126;28;20071;-65
2021/11/08 03:04:48;;;;;;;59.30;29.08;;;;;;;;;;10283037;28;20087;-64
2021/11/08 03:09:50;;;;;;;55.85;28.73;;;;;;;;;;10287222;28;20065;-65
2021/11/08 03:14:57;;;;;;;36.92;25.45;;;;;;;;;;10288982;28;20556;-65
2021/11/08 03:19:56;;;;;;;136.43;31.83;;;;;;;;;;10291380;28;20085;-64
2021/11/08 03:24:58;;;;;;;82.80;31.83;;;;;;;;;;10283267;28;20084;-65
2021/11/08 03:29:58;;;;;;;68.85;31.30;;;;;;;;;;10297426;28;20065;-64
2021/11/08 03:34:58;;;;;;;162.07;30.67;;;;;;;;;;10256042;28;1117692;-65
2021/11/08 03:39:58;;;;;;;94.25;29.45;;;;;;;;;;10296968;28;20049;-64
2021/11/08 03:44:56;;;;;;;68.40;29.23;;;;;;;;;;10283531;28;20073;-65
2021/11/08 03:49:54;;;;;;;202.80;32.00;;;;;;;;;;10288899;28;20073;-65
2021/11/08 03:54:53;;;;;;;186.43;29.70;;;;;;;;;;10299706;28;20087;-65
2021/11/08 03:59:52;;;;;;;248.75;32.25;;;;;;;;;;10294889;28;20072;-64
2021/11/08 04:04:51;;;;;;;88.80;24.83;;;;;;;;;;10282912;28;20084;-64
2021/11/08 04:09:49;;;;;;;155.07;29.55;;;;;;;;;;10279606;28;20465;-65
2021/11/08 04:14:47;;;;;;;188.90;28.85;;;;;;;;;;10287625;28;20088;-65
2021/11/08 04:19:47;;;;;;;94.90;31.50;;;;;;;;;;10287578;28;20488;-65
2021/11/08 04:24:47;;;;;;;129.32;30.65;;;;;;;;;;10291423;28;20506;-65
2021/11/08 04:29:45;;;;;;;54.45;24.27;;;;;;;;;;10285242;28;20041;-65
2021/11/08 04:34:46;;;;;;;121.00;21.40;;;;;;;;;;10287093;28;20048;-65
2021/11/08 04:40:02;;;;;;;205.93;30.55;;;;;;;;;;10286222;28;20052;-65
2021/11/08 04:45:36;;;;;;;106.60;23.52;;;;;;;;;;10284035;28;20485;-64
2021/11/08 04:50:39;;;;;;;113.75;25.95;;;;;;;;;;10291331;28;20068;-65
2021/11/08 04:55:59;;;;;;;50.28;24.88;;;;;;;;;;10285848;28;20049;-65
2021/11/08 05:22:09;;;;;;;98.32;33.15;;;;;;;;;;10277063;28;20093;-65
2021/11/08 05:32:26;;;;;;;96.22;26.98;;;;;;;;;;10294076;28;20068;-64
2021/11/08 05:37:25;;;;;;;109.43;33.42;;;;;;;;;;10280707;28;20068;-62
2021/11/08 05:42:25;;;;;;;149.32;42.42;;;;;;;;;;10293697;28;20060;-63
2021/11/08 05:47:23;;;;;;;192.30;39.83;;;;;;;;;;10287768;28;20079;-65
2021/11/08 05:52:21;;;;;;;161.38;28.83;;;;;;;;;;10280497;28;20465;-65
2021/11/08 06:50:22;;;;;;;61.33;21.30;;;;;;;;;;10285731;28;20497;-63
2021/11/08 06:55:22;;;;;;;67.15;22.98;;;;;;;;;;10292716;28;20065;-65
2021/11/08 07:00:21;;;;;;;61.33;21.60;;;;;;;;;;10285390;28;20091;-65
2021/11/08 07:05:20;;;;;;;81.75;20.98;;;;;;;;;;10276883;28;20079;-65
2021/11/08 07:10:20;;;;;;;44.35;22.95;;;;;;;;;;10275099;28;20478;-65
2021/11/08 07:15:20;;;;;;;58.45;26.60;;;;;;;;;;10288241;28;20072;-64
2021/11/08 07:20:19;;;;;;;81.47;48.78;;;;;;;;;;10289203;28;20518;-65
2021/11/08 07:25:18;;;;;;;63.67;24.95;;;;;;;;;;10291512;28;20166;-65
2021/11/08 07:30:16;;;;;;;52.35;21.30;;;;;;;;;;10289341;28;20083;-64
2021/11/08 07:35:16;;;;;;;32.72;21.13;;;;;;;;;;10290777;28;20083;-64
2021/11/08 07:40:15;;;;;;;49.40;22.52;;;;;;;;;;10299740;28;20072;-65
2021/11/08 07:45:13;;;;;;;52.78;24.88;;;;;;;;;;10295974;28;20479;-64
2021/11/08 07:50:11;;;;;;;49.42;23.65;;;;;;;;;;10295246;28;20075;-65
2021/11/08 07:55:11;;;;;;;37.40;26.27;;;;;;;;;;10299292;28;20064;-64
2021/11/08 08:00:10;;;;;;;45.97;25.30;;;;;;;;;;10295625;28;20045;-66
2021/11/08 08:05:12;;;;;;;63.08;38.65;;;;;;;;;;10284643;28;20080;-64
2021/11/08 08:10:12;;;;;;;124.55;84.93;;;;;;;;;;10287911;28;20108;-65
2021/11/08 08:15:10;;;;;;;60.33;41.72;;;;;;;;;;10287822;28;20081;-66
2021/11/08 08:20:10;;;;;;;37.17;26.08;;;;;;;;;;10287513;28;20079;-66
2021/11/08 08:25:09;;;;;;;46.05;33.35;;;;;;;;;;10287633;28;20081;-66
2021/11/08 08:30:10;;;;;;;51.85;37.72;;;;;;;;;;10287448;28;20073;-65
2021/11/08 08:35:10;;;;;;;41.50;30.10;;;;;;;;;;10287406;28;20057;-66
2021/11/08 08:40:09;;;;;;;36.65;25.23;;;;;;;;;;10275792;28;20085;-66
2021/11/08 08:45:10;;;;;;;34.13;24.85;;;;;;;;;;10275520;28;20080;-64
2021/11/08 08:50:13;;;;;;;48.15;30.65;;;;;;;;;;10287111;28;20037;-66
2021/11/08 08:55:16;;;;;;;43.85;31.40;;;;;;;;;;10297279;28;20065;-66
2021/11/08 09:00:19;;;;;;;55.33;35.20;;;;;;;;;;10291352;28;20500;-66
2021/11/08 09:05:19;;;;;;;43.25;27.23;;;;;;;;;;10281023;28;20076;-66
2021/11/08 09:10:19;;;;;;;39.45;24.67;;;;;;;;;;10285746;28;20083;-66
2021/11/08 09:15:19;;;;;;;37.08;27.38;;;;;;;;;;10286012;28;20087;-66
2021/11/08 09:20:17;;;;;;;42.35;27.20;;;;;;;;;;10274912;28;20072;-65
2021/11/08 09:25:16;;;;;;;45.35;30.48;;;;;;;;;;10274390;28;20107;-66
2021/11/08 09:30:15;;;;;;;48.95;34.30;;;;;;;;;;10274748;28;20036;-66
2021/11/08 09:35:15;;;;;;;42.83;27.15;;;;;;;;;;10274396;28;20045;-65
2021/11/08 09:40:14;;;;;;;36.60;27.00;;;;;;;;;;10283603;28;20501;-66
2021/11/08 09:45:13;;;;;;;37.33;27.63;;;;;;;;;;10285243;28;20072;-65
2021/11/08 09:50:12;;;;;;;36.20;26.95;;;;;;;;;;10286166;28;20303;-65
2021/11/08 09:55:13;;;;;;;39.08;28.27;;;;;;;;;;10296336;28;20459;-65
2021/11/08 10:00:46;;;;;;;45.72;31.20;;;;;;;;;;10295525;28;20498;-66
2021/11/08 10:05:46;;;;;;;46.72;34.67;;;;;;;;;;10287993;28;20076;-65
2021/11/08 10:10:50;;;;;;;37.90;27.98;;;;;;;;;;10292993;28;20076;-64
2021/11/08 10:15:49;;;;;;;36.40;27.15;;;;;;;;;;10292916;28;20037;-65
2021/11/08 10:20:49;;;;;;;35.40;26.08;;;;;;;;;;10292224;28;20103;-65
2021/11/08 10:25:47;;;;;;;38.42;28.02;;;;;;;;;;10292441;28;20076;-65
2021/11/08 10:30:56;;;;;;;37.47;27.88;;;;;;;;;;10291594;28;20045;-67
2021/11/08 10:35:56;;;;;;;59.70;40.75;;;;;;;;;;10289274;28;20041;-65
2021/11/08 10:40:55;;;;;;;43.65;29.98;;;;;;;;;;10285926;28;20073;-65
2021/11/08 10:45:56;;;;;;;40.13;30.48;;;;;;;;;;10292299;28;20159;-66
2021/11/08 10:50:56;;;;;;;51.35;33.80;;;;;;;;;;10293092;28;20080;-65
2021/11/08 10:55:55;;;;;;;44.83;33.72;;;;;;;;;;10293903;28;20041;-64
2021/11/08 11:00:57;;;;;;;34.95;27.25;;;;;;;;;;10279993;28;20075;-65
2021/11/08 11:06:01;;;;;;;39.10;30.17;;;;;;;;;;10285470;28;20088;-65
2021/11/08 11:11:00;;;;;;;46.58;32.38;;;;;;;;;;10286890;28;20083;-65
2021/11/08 11:16:04;;;;;;;48.88;34.00;;;;;;;;;;10289548;28;20117;-65
2021/11/08 11:21:13;;;;;;;41.13;32.70;;;;;;;;;;10290171;28;20071;-65
2021/11/08 11:26:12;;;;;;;45.67;33.67;;;;;;;;;;10289412;28;20080;-65
2021/11/08 11:31:13;;;;;;;44.25;34.58;;;;;;;;;;10286604;28;20053;-65
2021/11/08 11:36:13;;;;;;;41.20;31.80;;;;;;;;;;10289575;28;20076;-65
2021/11/08 11:41:14;;;;;;;45.80;33.22;;;;;;;;;;10286683;28;20064;-64
2021/11/08 11:46:15;;;;;;;46.75;38.78;;;;;;;;;;10287603;28;20492;-65
2021/11/08 11:51:14;;;;;;;47.28;37.83;;;;;;;;;;10278549;28;20057;-65
2021/11/08 11:56:14;;;;;;;46.75;34.72;;;;;;;;;;10291271;28;20508;-65
2021/11/08 12:01:14;;;;;;;50.35;35.78;;;;;;;;;;10295964;28;20729;-65
2021/11/08 12:06:15;;;;;;;46.42;34.38;;;;;;;;;;10282870;28;20076;-65
2021/11/08 12:11:14;;;;;;;43.58;34.22;;;;;;;;;;10287664;28;20045;-65
2021/11/08 12:16:18;;;;;;;49.30;35.33;;;;;;;;;;10287118;28;20513;-64
2021/11/08 12:21:22;;;;;;;41.55;34.40;;;;;;;;;;10286587;28;20502;-65
2021/11/08 12:26:21;;;;;;;41.67;31.90;;;;;;;;;;10286778;28;20072;-64
2021/11/08 12:31:25;;;;;;;48.20;35.65;;;;;;;;;;10285307;28;20474;-64
2021/11/08 12:36:25;;;;;;;41.38;32.28;;;;;;;;;;10286894;28;20044;-64
2021/11/08 12:41:29;;;;;;;43.30;33.00;;;;;;;;;;10284676;28;20064;-65
2021/11/08 12:46:31;;;;;;;45.95;34.88;;;;;;;;;;10284912;28;20072;-65
2021/11/08 12:51:31;;;;;;;47.97;36.17;;;;;;;;;;10288637;28;20509;-65
2021/11/08 12:56:32;;;;;;;49.50;38.60;;;;;;;;;;10284594;28;20438;-65
2021/11/08 13:01:40;;;;;;;44.85;35.35;;;;;;;;;;10275587;28;20045;-65
2021/11/08 13:06:46;;;;;;;48.85;35.58;;;;;;;;;;10275437;28;20085;-65
2021/11/08 13:11:45;;;;;;;57.72;39.65;;;;;;;;;;10277536;28;20068;-64
2021/11/08 13:16:43;;;;;;;57.95;43.97;;;;;;;;;;10279025;28;20056;-65
2021/11/08 13:21:42;;;;;;;49.50;36.88;;;;;;;;;;10286033;28;20064;-65
2021/11/08 13:26:43;;;;;;;50.60;40.60;;;;;;;;;;10286127;28;20068;-65
2021/11/08 13:31:41;;;;;;;57.55;47.65;;;;;;;;;;10285675;28;20559;-65
2021/11/08 13:36:39;;;;;;;48.25;40.30;;;;;;;;;;10292024;28;20398;-64
2021/11/08 13:41:38;;;;;;;46.70;36.13;;;;;;;;;;10290408;28;20477;-65
2021/11/08 13:46:38;;;;;;;49.97;37.40;;;;;;;;;;10281555;28;20048;-65
2021/11/08 13:51:39;;;;;;;50.60;37.58;;;;;;;;;;10286315;28;20048;-64
2021/11/08 13:56:39;;;;;;;57.70;41.55;;;;;;;;;;10291379;28;20068;-65
2021/11/08 14:01:40;;;;;;;48.03;37.55;;;;;;;;;;10285353;28;20072;-65
2021/11/08 14:06:39;;;;;;;54.58;37.53;;;;;;;;;;10286629;28;20040;-65
2021/11/08 14:11:38;;;;;;;54.95;40.50;;;;;;;;;;10293242;28;20075;-65
2021/11/08 14:16:37;;;;;;;48.40;37.72;;;;;;;;;;10284210;28;20068;-64
2021/11/08 14:21:37;;;;;;;56.50;40.50;;;;;;;;;;10292588;28;20064;-64
2021/11/08 14:26:37;;;;;;;60.45;42.47;;;;;;;;;;10292164;28;20063;-64
2021/11/08 14:31:35;;;;;;;57.28;41.45;;;;;;;;;;10291450;28;20084;-64
2021/11/08 14:36:42;;;;;;;60.72;42.08;;;;;;;;;;10291987;28;20064;-64
2021/11/08 14:41:50;;;;;;;70.53;50.45;;;;;;;;;;10289576;28;20072;-64
2021/11/08 14:46:51;;;;;;;55.58;40.60;;;;;;;;;;10289717;28;20072;-64
2021/11/08 14:51:57;;;;;;;76.28;56.47;;;;;;;;;;10290839;28;20037;-65
2021/11/08 14:56:57;;;;;;;64.38;40.17;;;;;;;;;;10297621;28;20476;-65
2021/11/08 15:02:02;;;;;;;63.05;46.78;;;;;;;;;;10298218;28;20067;-65
2021/11/08 15:07:03;;;;;;;66.32;43.00;;;;;;;;;;10282356;28;20067;-65
2021/11/08 15:12:01;;;;;;;61.38;44.60;;;;;;;;;;10290070;28;20052;-65
2021/11/08 15:16:59;;;;;;;64.28;46.13;;;;;;;;;;10289918;28;20469;-65
2021/11/08 15:21:59;;;;;;;60.75;43.28;;;;;;;;;;10289612;28;20077;-66
2021/11/08 15:26:59;;;;;;;59.70;45.08;;;;;;;;;;10284852;28;20075;-66
2021/11/08 15:31:58;;;;;;;57.67;43.55;;;;;;;;;;10281047;28;20061;-65
2021/11/08 15:37:03;;;;;;;63.30;45.72;;;;;;;;;;10285872;28;20430;-65
2021/11/08 15:42:04;;;;;;;54.25;39.63;;;;;;;;;;10285790;28;20506;-66
2021/11/08 15:47:04;;;;;;;51.63;38.97;;;;;;;;;;10288535;28;20085;-66
2021/11/08 15:52:02;;;;;;;52.30;39.63;;;;;;;;;;10294449;28;20429;-66
2021/11/08 15:57:01;;;;;;;56.47;40.17;;;;;;;;;;10283386;28;20068;-66
2021/11/08 16:02:01;;;;;;;60.28;41.65;;;;;;;;;;10283699;28;20060;-65
2021/11/08 16:06:59;;;;;;;55.58;41.65;;;;;;;;;;10280067;28;20082;-65
2021/11/08 16:11:57;;;;;;;63.58;46.78;;;;;;;;;;10287679;28;20075;-65
2021/11/08 16:16:56;;;;;;;57.05;40.38;;;;;;;;;;10279149;28;20548;-65
2021/11/08 16:21:55;;;;;;;52.67;39.55;;;;;;;;;;10279177;28;20084;-66
2021/11/08 16:26:54;;;;;;;53.05;40.65;;;;;;;;;;10287786;28;20083;-65
2021/11/08 16:32:04;;;;;;;58.17;38.95;;;;;;;;;;10287259;28;20483;-65
2021/11/08 16:37:04;;;;;;;58.50;41.25;;;;;;;;;;10284468;28;20049;-65
2021/11/08 16:42:05;;;;;;;62.08;44.97;;;;;;;;;;10279143;28;20072;-66
2021/11/08 16:47:04;;;;;;;57.10;41.10;;;;;;;;;;10288060;28;20072;-65
2021/11/08 16:52:05;;;;;;;52.53;40.85;;;;;;;;;;10286147;28;20427;-65
2021/11/08 16:57:04;;;;;;;61.15;45.00;;;;;;;;;;10299662;28;20450;-66
2021/11/08 17:02:02;;;;;;;66.85;52.13;;;;;;;;;;10295060;28;20500;-65
2021/11/08 17:07:03;;;;;;;58.75;43.22;;;;;;;;;;10275596;28;20044;-66
2021/11/08 17:17:19;;;;;;;61.78;46.30;;;;;;;;;;10277833;28;20049;-65
2021/11/08 17:22:18;;;;;;;54.65;42.63;;;;;;;;;;10286693;28;20469;-64
2021/11/08 17:27:17;;;;;;;64.43;42.38;;;;;;;;;;10285439;28;20037;-64
2021/11/08 17:32:16;;;;;;;64.07;46.70;;;;;;;;;;10282929;28;20087;-63
2021/11/08 17:37:14;;;;;;;70.07;52.58;;;;;;;;;;10292109;28;20135;-65
2021/11/08 17:42:12;;;;;;;66.07;48.95;;;;;;;;;;10297660;28;20083;-65
2021/11/08 17:47:12;;;;;;;85.18;60.40;;;;;;;;;;10281515;28;20065;-65
2021/11/08 17:52:10;;;;;;;126.68;93.32;;;;;;;;;;10286253;28;20090;-65
2021/11/08 17:57:10;;;;;;;96.05;76.40;;;;;;;;;;10297947;28;20079;-64
2021/11/08 18:02:10;;;;;;;94.60;72.70;;;;;;;;;;10289678;28;20075;-64
2021/11/08 18:07:10;;;;;;;133.25;91.35;;;;;;;;;;10297548;28;20060;-65
2021/11/08 18:12:08;;;;;;;113.40;81.70;;;;;;;;;;10301359;28;20071;-64
2021/11/08 18:17:07;;;;;;;94.10;72.07;;;;;;;;;;10279237;28;20075;-64
2021/11/08 18:22:25;;;;;;;88.68;67.82;;;;;;;;;;10285763;28;20095;-64
2021/11/08 18:27:24;;;;;;;110.43;88.10;;;;;;;;;;10289975;28;20072;-64
2021/11/08 18:32:22;;;;;;;72.93;55.25;;;;;;;;;;10291411;28;20084;-64
2021/11/08 18:37:21;;;;;;;64.28;50.45;;;;;;;;;;10297334;28;20048;-64
2021/11/08 18:42:19;;;;;;;61.63;47.85;;;;;;;;;;10292079;28;20068;-63
2021/11/08 18:47:19;;;;;;;70.25;53.33;;;;;;;;;;10289315;28;20264;-64
2021/11/08 18:52:18;;;;;;;82.40;65.18;;;;;;;;;;10284699;28;20076;-63
2021/11/08 18:57:19;;;;;;;61.25;46.40;;;;;;;;;;10292376;28;20075;-64
2021/11/08 19:02:23;;;;;;;66.57;47.97;;;;;;;;;;10295642;28;20080;-65
2021/11/08 19:07:28;;;;;;;64.80;49.57;;;;;;;;;;10287545;28;20072;-64
2021/11/08 19:12:27;;;;;;;82.25;57.10;;;;;;;;;;10288757;28;20346;-65
2021/11/08 19:17:29;;;;;;;81.60;57.60;;;;;;;;;;10291420;28;20041;-64
2021/11/08 19:22:27;;;;;;;82.00;59.80;;;;;;;;;;10296359;28;20076;-64
2021/11/08 19:27:26;;;;;;;102.93;75.45;;;;;;;;;;10298667;28;20075;-65
2021/11/08 19:32:33;;;;;;;84.20;63.83;;;;;;;;;;10289728;28;20083;-64
2021/11/08 19:42:48;;;;;;;76.78;56.65;;;;;;;;;;10297083;28;20102;-65
2021/11/08 19:47:47;;;;;;;76.10;56.42;;;;;;;;;;10286993;28;20065;-64
2021/11/08 19:52:46;;;;;;;87.40;65.68;;;;;;;;;;10287393;28;20455;-64
2021/11/08 19:57:44;;;;;;;86.22;61.58;;;;;;;;;;10275968;28;20037;-62
2021/11/08 20:02:43;;;;;;;63.22;48.70;;;;;;;;;;10283306;28;20076;-64
2021/11/08 20:07:47;;;;;;;64.55;48.35;;;;;;;;;;10294290;28;20064;-64
2021/11/08 20:12:52;;;;;;;80.88;57.80;;;;;;;;;;10281035;28;20132;-65
2021/11/08 20:17:50;;;;;;;68.22;48.60;;;;;;;;;;10282802;28;20068;-63
2021/11/08 20:22:49;;;;;;;65.47;47.92;;;;;;;;;;10285554;28;20056;-64
2021/11/08 20:27:49;;;;;;;64.53;47.35;;;;;;;;;;10276144;28;20469;-63
2021/11/08 20:33:04;;;;;;;64.05;48.40;;;;;;;;;;10276046;28;20534;-63
2021/11/08 20:38:07;;;;;;;;;;;;;;;;;;10278893;28;20049;-64
2021/11/08 20:43:33;;;;;;;67.20;48.92;;;;;;;;;;10277760;28;20400;-63
2021/11/08 20:53:58;;;;;;;80.35;57.92;;;;;;;;;;10285504;28;20068;-64
2021/11/08 20:59:15;;;;;;;62.80;46.85;;;;;;;;;;10285919;28;20492;-62
2021/11/08 21:04:32;;;;;;;58.28;41.78;;;;;;;;;;10284499;28;20089;-64
2021/11/08 21:14:44;;;;;;;56.33;43.65;;;;;;;;;;10262529;28;20088;-63
2021/11/08 21:19:42;;;;;;;57.55;42.88;;;;;;;;;;10293408;28;20052;-63
2021/11/08 21:24:42;;;;;;;60.35;43.38;;;;;;;;;;10278950;28;20170;-62
2021/11/08 21:29:47;;;;;;;59.28;45.13;;;;;;;;;;10285529;28;20073;-63
2021/11/08 21:40:04;;;;;;;67.28;45.70;;;;;;;;;;10273613;28;20049;-63
2021/11/08 21:45:02;;;;;;;56.33;40.40;;;;;;;;;;10274198;28;20061;-63
2021/11/08 21:50:02;;;;;;;53.35;38.38;;;;;;;;;;10274005;28;20077;-63
2021/11/08 21:55:01;;;;;;;47.42;36.78;;;;;;;;;;10297847;28;20045;-64
2021/11/08 21:59:59;;;;;;;48.33;35.35;;;;;;;;;;10300646;28;20064;-64
2021/11/08 22:04:58;;;;;;;47.03;32.58;;;;;;;;;;10287235;28;20049;-63
2021/11/08 22:09:57;;;;;;;39.78;28.25;;;;;;;;;;10292865;28;20095;-64
2021/11/08 22:14:56;;;;;;;31.40;23.25;;;;;;;;;;10285499;28;20076;-64
2021/11/08 22:19:54;;;;;;;40.25;26.48;;;;;;;;;;10292226;28;20081;-64
2021/11/08 22:24:52;;;;;;;30.13;22.77;;;;;;;;;;10286744;28;20049;-63
2021/11/08 22:29:52;;;;;;;26.25;19.30;;;;;;;;;;10281014;28;20047;-64
2021/11/08 22:34:54;;;;;;;18.15;14.80;;;;;;;;;;10280326;28;20056;-64
2021/11/08 22:39:52;;;;;;;26.42;17.88;;;;;;;;;;10299502;28;20079;-64
2021/11/08 22:44:52;;;;;;;29.75;19.38;;;;;;;;;;10280621;28;20068;-64
2021/11/08 22:49:50;;;;;;;21.13;14.60;;;;;;;;;;10280746;28;20045;-64
2021/11/08 22:54:49;;;;;;;19.75;13.93;;;;;;;;;;10302450;28;20048;-63
2021/11/08 22:59:49;;;;;;;23.38;14.98;;;;;;;;;;10298851;28;20076;-64
2021/11/08 23:04:48;;;;;;;26.30;16.45;;;;;;;;;;10279226;28;20040;-62
2021/11/08 23:09:46;;;;;;;25.45;16.98;;;;;;;;;;10279059;28;20512;-65
2021/11/08 23:14:45;;;;;;;33.38;18.75;;;;;;;;;;10279122;28;20073;-62
2021/11/08 23:19:43;;;;;;;22.02;14.93;;;;;;;;;;10278114;28;20045;-64
2021/11/08 23:24:43;;;;;;;22.27;13.75;;;;;;;;;;10289027;28;20075;-64
2021/11/08 23:29:41;;;;;;;23.27;13.73;;;;;;;;;;10289800;28;20045;-63
2021/11/08 23:34:39;;;;;;;15.23;11.43;;;;;;;;;;10290053;28;20073;-62
2021/11/08 23:39:39;;;;;;;15.60;10.88;;;;;;;;;;10289295;28;20502;-63
2021/11/08 23:44:39;;;;;;;20.48;10.52;;;;;;;;;;10288065;28;20041;-64
2021/11/08 23:49:38;;;;;;;14.77;10.60;;;;;;;;;;10290075;28;20461;-62
2021/11/08 23:54:36;;;;;;;13.48;9.75;;;;;;;;;;10299724;28;20075;-64
2021/11/08 23:59:35;;;;;;;15.02;11.20;;;;;;;;;;10294925;28;20044;-64
